Beverly Municipal Airport Beverly US
ICAO: KBVY
IATA: BVY
Category: Medium
Scheduled Services: No

Elevation: 107 ft
TransAlt. 18000 ft.

Airport Communications:
BOSTON APP/DEP:124.4
ATIS:119.2
CTAF:125.2
GND:121.6
TWR:125.2
UNICOM:122.95

KBVY Zoom In..

If you have problems with the map follow the link
https://www.worldairports.se/pages/airport.php?
ICAO=KBVY

Runways:

(A) RW 09 length 4755 ft width 100 ft
LOC 110.50 / hdg 90

(B) RW 16 length 5001 ft width 100 ft
LOC 110.50 / hdg 157

(C) RW 27 length 4755 ft width 100 ft
LOC 110.50 / hdg 270

(D) RW 34 length 5001 ft width 100 ft
LOC 110.50 / hdg 337

Location; KBVY
Day. 19 / Time. 13.32 Zulu
* Altimeter: 30.15
* Temperature: 02° c. 35.6°f.
* Wind from: 350° Speed 03 kn.
Dewpoint: 00° c.
Visibility: 2 m.
Clouds: Broken 300 ft.
Clouds: Broken 1400 ft.
Clouds: Overcast 2500 ft.
Conditions: Light Rain.Conditions: Mist.

KBVY 191332Z 35003KT 2 1/2SM -RA BR BKN003 BKN014 OVC025 02/00 A3015 RMK AO2 P0002 T00170000


Wind From 350°
Speed 03 kn.

 
 
jpsmedia.com for Web Design worldairports.se 2018   terms of use